createdAt,value
2022-12-03T00:01:27.408Z,36.25
2022-12-03T00:03:55.467Z,40.15
2022-12-03T00:06:24.174Z,35.28
2022-12-03T00:08:52.093Z,28.35
2022-12-03T00:11:19.561Z,27.73
2022-12-03T00:13:48.409Z,38.72
2022-12-03T00:16:15.957Z,30.58
2022-12-03T00:18:43.671Z,27.98
2022-12-03T00:21:11.279Z,27.05
2022-12-03T00:23:42.334Z,31.77
2022-12-03T00:26:10.523Z,29.15
2022-12-03T00:28:38.153Z,34.08
2022-12-03T00:31:05.907Z,27.35
2022-12-03T00:33:33.651Z,35.92
2022-12-03T00:36:01.243Z,33.78
2022-12-03T00:38:28.759Z,32.50
2022-12-03T00:40:56.334Z,31.30
2022-12-03T00:43:24.038Z,37.03
2022-12-03T00:45:51.857Z,30.38
2022-12-03T00:48:19.517Z,33.80
2022-12-03T00:50:47.092Z,36.85
2022-12-03T00:53:14.624Z,26.42
2022-12-03T00:55:42.215Z,29.15
2022-12-03T00:58:09.995Z,30.95
2022-12-03T01:00:38.071Z,29.13
2022-12-03T01:03:05.744Z,29.15
2022-12-03T01:05:34.085Z,26.95
2022-12-03T01:08:01.882Z,34.80
2022-12-03T01:10:29.512Z,31.20
2022-12-03T01:12:57.043Z,30.10
2022-12-03T01:15:24.517Z,32.92
2022-12-03T01:17:54.285Z,23.13
2022-12-03T01:20:22.055Z,26.20
2022-12-03T01:22:50.004Z,22.10
2022-12-03T01:25:17.922Z,25.13
2022-12-03T01:27:45.572Z,27.00
2022-12-03T01:30:13.836Z,22.63
2022-12-03T01:32:41.439Z,34.15
2022-12-03T01:35:09.172Z,22.90
2022-12-03T01:37:36.927Z,26.58
2022-12-03T01:40:05.495Z,16.98
2022-12-03T01:42:36.846Z,18.25
2022-12-03T01:45:05.126Z,20.63
2022-12-03T01:47:35.835Z,19.83
2022-12-03T01:50:27.459Z,19.38
2022-12-03T01:52:58.291Z,22.67
2022-12-03T01:55:26.434Z,19.40
2022-12-03T01:58:00.763Z,17.65
2022-12-03T02:00:29.940Z,23.25
2022-12-03T02:03:07.355Z,21.05
2022-12-03T02:05:34.959Z,15.38
2022-12-03T02:08:02.672Z,17.85
2022-12-03T02:10:37.728Z,20.90
2022-12-03T02:13:08.056Z,18.25
2022-12-03T02:15:36.919Z,18.48
2022-12-03T02:18:04.740Z,16.90
2022-12-03T02:20:37.110Z,26.80
2022-12-03T02:23:16.481Z,18.83
2022-12-03T02:25:45.094Z,19.42
2022-12-03T02:28:12.760Z,19.63
2022-12-03T02:30:40.331Z,13.73
2022-12-03T02:33:07.957Z,18.35
2022-12-03T02:35:37.345Z,18.88
2022-12-03T02:38:19.901Z,26.20
2022-12-03T02:40:49.888Z,24.92
2022-12-03T02:45:55.820Z,21.65
2022-12-03T02:48:29.738Z,16.65
2022-12-03T02:51:01.195Z,21.98
2022-12-03T02:53:36.814Z,19.83
2022-12-03T02:56:05.571Z,21.27
2022-12-03T02:58:33.916Z,22.63
2022-12-03T03:01:03.894Z,18.95
2022-12-03T03:03:32.927Z,18.75
2022-12-03T03:06:02.606Z,25.27
2022-12-03T03:08:30.772Z,26.23
2022-12-03T03:11:01.064Z,27.40
2022-12-03T03:13:31.386Z,30.23
2022-12-03T03:15:59.431Z,20.10
2022-12-03T03:18:27.130Z,24.98
2022-12-03T03:20:55.003Z,18.13
2022-12-03T03:23:24.030Z,26.63
2022-12-03T03:26:06.785Z,31.67
2022-12-03T03:28:49.818Z,21.45
2022-12-03T03:31:21.127Z,20.30
2022-12-03T03:33:50.062Z,20.13
2022-12-03T03:36:18.180Z,23.52
2022-12-03T03:38:46.579Z,21.70
2022-12-03T03:41:15.255Z,25.83
2022-12-03T03:43:44.292Z,22.52
2022-12-03T03:46:12.487Z,28.57
2022-12-03T03:48:42.117Z,21.50
2022-12-03T03:51:10.831Z,26.73
2022-12-03T03:53:44.619Z,21.08
2022-12-03T03:56:12.857Z,20.55
2022-12-03T03:58:40.526Z,20.05
2022-12-03T04:01:09.650Z,18.45
2022-12-03T04:03:37.244Z,26.70
2022-12-03T04:06:05.332Z,29.63
2022-12-03T04:08:33.012Z,22.00
2022-12-03T04:11:19.210Z,25.65
2022-12-03T04:13:46.762Z,27.10
2022-12-03T04:16:14.347Z,25.08
2022-12-03T04:18:45.417Z,23.70
2022-12-03T04:21:33.666Z,29.40
2022-12-03T04:24:01.904Z,26.70
2022-12-03T04:26:49.231Z,26.77
2022-12-03T04:29:19.487Z,16.50
2022-12-03T04:32:05.384Z,18.95
2022-12-03T04:34:52.512Z,22.25
2022-12-03T04:37:20.559Z,22.00
2022-12-03T04:39:48.496Z,24.45
2022-12-03T04:42:16.191Z,23.65
2022-12-03T04:44:43.708Z,26.23
2022-12-03T04:47:18.967Z,27.35
2022-12-03T04:49:48.621Z,26.88
2022-12-03T04:52:18.835Z,20.42
2022-12-03T04:54:46.664Z,22.38
2022-12-03T04:57:14.130Z,21.48
2022-12-03T04:59:42.102Z,18.58
2022-12-03T05:02:09.785Z,24.70
2022-12-03T05:04:37.630Z,30.75
2022-12-03T05:07:05.096Z,16.80
2022-12-03T05:09:33.255Z,17.90
2022-12-03T05:12:01.116Z,17.50
2022-12-03T05:14:28.679Z,18.88
2022-12-03T05:16:56.326Z,18.70
2022-12-03T05:19:43.941Z,15.00
2022-12-03T05:22:11.592Z,17.90
2022-12-03T05:24:39.123Z,19.13
2022-12-03T05:27:06.637Z,16.08
2022-12-03T05:29:34.155Z,21.35
2022-12-03T05:32:01.644Z,13.63
2022-12-03T05:34:29.222Z,36.00
2022-12-03T05:36:56.697Z,13.05
2022-12-03T05:42:12.461Z,14.85
2022-12-03T05:44:40.124Z,16.38
2022-12-03T05:47:07.690Z,17.98
2022-12-03T05:49:35.580Z,18.77
2022-12-03T05:52:03.221Z,15.85
2022-12-03T05:54:30.881Z,16.25
2022-12-03T05:56:58.389Z,17.73
2022-12-03T05:59:25.933Z,12.45
2022-12-03T06:01:53.650Z,11.23
2022-12-03T06:04:21.970Z,10.35
2022-12-03T06:06:50.054Z,17.42
2022-12-03T06:09:17.598Z,12.05
2022-12-03T06:11:45.568Z,12.02
2022-12-03T06:14:13.165Z,11.57
2022-12-03T06:16:41.001Z,14.48
2022-12-03T06:19:08.868Z,13.93
2022-12-03T06:21:36.348Z,13.80
2022-12-03T06:24:04.294Z,10.68
2022-12-03T06:26:31.913Z,15.15
2022-12-03T06:28:59.441Z,15.90
2022-12-03T06:31:27.131Z,14.73
2022-12-03T06:33:54.820Z,9.45
2022-12-03T06:36:23.380Z,10.02
2022-12-03T06:38:51.207Z,30.42
2022-12-03T06:41:19.071Z,25.08
2022-12-03T06:43:46.922Z,13.35
2022-12-03T06:46:15.098Z,16.88
2022-12-03T06:48:42.841Z,12.77
2022-12-03T06:51:10.311Z,17.52
2022-12-03T06:53:38.046Z,20.67
2022-12-03T06:56:06.313Z,12.73
2022-12-03T06:58:34.071Z,15.88
2022-12-03T07:01:01.577Z,15.18
2022-12-03T07:03:29.157Z,13.05
2022-12-03T07:05:56.698Z,12.30
2022-12-03T07:08:24.735Z,15.40
2022-12-03T07:10:52.337Z,12.85
2022-12-03T07:13:20.135Z,15.55
2022-12-03T07:15:47.874Z,9.00
2022-12-03T07:18:15.533Z,15.20
2022-12-03T07:20:43.179Z,16.42
2022-12-03T07:23:10.730Z,11.38
2022-12-03T07:25:38.422Z,10.70
2022-12-03T07:28:06.240Z,10.05
2022-12-03T07:30:34.045Z,12.73
2022-12-03T07:33:01.888Z,9.48
2022-12-03T07:35:29.560Z,11.55
2022-12-03T07:37:57.194Z,12.70
2022-12-03T07:40:24.781Z,11.35
2022-12-03T07:42:52.539Z,11.80
2022-12-03T07:45:20.070Z,8.95
2022-12-03T07:47:47.656Z,10.27
2022-12-03T07:50:15.315Z,20.25
2022-12-03T07:52:42.948Z,17.90
2022-12-03T07:55:11.761Z,12.20
2022-12-03T07:57:40.903Z,16.73
2022-12-03T08:00:08.876Z,18.08
2022-12-03T08:02:36.589Z,16.70
2022-12-03T08:05:04.735Z,12.40
2022-12-03T08:07:32.665Z,13.52
2022-12-03T08:10:00.401Z,14.93
2022-12-03T08:12:50.563Z,10.25
2022-12-03T08:15:21.629Z,16.70
2022-12-03T08:17:58.770Z,14.10
2022-12-03T08:20:37.672Z,16.48
2022-12-03T08:23:13.292Z,13.67
2022-12-03T08:25:41.517Z,13.63
2022-12-03T08:28:14.694Z,13.50
2022-12-03T08:30:56.645Z,15.05
2022-12-03T08:33:36.750Z,18.27
2022-12-03T08:36:18.696Z,12.80
2022-12-03T08:38:51.168Z,15.65
2022-12-03T08:41:41.481Z,18.48
2022-12-03T08:44:38.663Z,15.20
2022-12-03T08:47:09.254Z,15.32
2022-12-03T08:49:37.587Z,17.45
2022-12-03T08:52:16.283Z,17.70
2022-12-03T08:54:47.431Z,15.95
2022-12-03T08:57:29.962Z,17.70
2022-12-03T09:00:16.855Z,13.25
2022-12-03T09:02:47.606Z,14.55
2022-12-03T09:05:33.425Z,19.17
2022-12-03T09:08:01.258Z,14.20
2022-12-03T09:10:28.968Z,16.95
2022-12-03T09:12:56.731Z,16.83
2022-12-03T09:15:24.492Z,22.90
2022-12-03T09:17:52.169Z,15.15
2022-12-03T09:20:19.828Z,15.70
2022-12-03T09:22:47.400Z,20.60
2022-12-03T09:25:16.003Z,17.95
2022-12-03T09:27:43.527Z,18.05
2022-12-03T09:30:11.568Z,23.20
2022-12-03T09:32:39.215Z,24.77
2022-12-03T09:35:07.853Z,17.40
2022-12-03T09:37:35.550Z,19.08
2022-12-03T09:40:03.842Z,17.75
2022-12-03T09:42:31.488Z,19.25
2022-12-03T09:45:00.564Z,18.48
2022-12-03T09:47:29.507Z,15.65
2022-12-03T09:49:58.054Z,17.50
2022-12-03T09:52:31.706Z,25.83
2022-12-03T09:55:05.621Z,22.77
2022-12-03T09:57:33.496Z,21.42
2022-12-03T10:00:01.050Z,18.67
2022-12-03T10:02:30.660Z,18.05
2022-12-03T10:04:58.897Z,22.23
2022-12-03T10:07:26.732Z,17.77
2022-12-03T10:09:54.506Z,20.48
2022-12-03T10:12:24.958Z,28.98
2022-12-03T10:14:53.792Z,18.52
2022-12-03T10:17:21.731Z,11.93
2022-12-03T10:19:49.424Z,21.25
2022-12-03T10:22:16.964Z,10.55
2022-12-03T10:24:45.036Z,13.65
2022-12-03T10:27:30.508Z,14.35
2022-12-03T10:30:00.463Z,14.02
2022-12-03T10:35:19.136Z,12.80
2022-12-03T10:38:26.606Z,8.93
2022-12-03T10:40:54.476Z,13.18
2022-12-03T10:43:24.051Z,10.60
2022-12-03T10:46:11.622Z,14.10
2022-12-03T10:48:39.350Z,11.85
2022-12-03T10:51:15.520Z,9.10
2022-12-03T10:53:45.893Z,8.13
2022-12-03T10:56:20.974Z,7.40
2022-12-03T10:58:48.736Z,7.95
2022-12-03T11:01:25.425Z,9.20
2022-12-03T11:03:55.518Z,6.75
2022-12-03T11:08:58.467Z,5.07
2022-12-03T11:11:29.362Z,7.43
2022-12-03T11:13:59.190Z,4.28
2022-12-03T11:16:42.081Z,3.78
2022-12-03T11:19:12.778Z,7.28
2022-12-03T11:22:05.195Z,12.05
2022-12-03T11:24:38.428Z,4.15
2022-12-03T11:27:16.883Z,3.85
2022-12-03T11:29:59.592Z,4.85
2022-12-03T11:33:00.106Z,4.15
2022-12-03T11:35:36.242Z,3.45
2022-12-03T11:38:48.916Z,4.68
2022-12-03T11:41:30.481Z,3.15
2022-12-03T11:44:24.754Z,5.80
2022-12-03T11:46:53.247Z,2.30
2022-12-03T11:49:46.431Z,7.28
2022-12-03T11:52:39.972Z,4.13
2022-12-03T11:55:33.156Z,11.40
2022-12-03T11:58:06.271Z,4.60
2022-12-03T12:00:33.827Z,6.63
2022-12-03T12:03:01.542Z,7.20
2022-12-03T12:05:33.825Z,4.75
2022-12-03T12:08:02.706Z,4.78
2022-12-03T12:10:49.190Z,4.35
2022-12-03T12:13:50.249Z,3.03
2022-12-03T12:16:37.816Z,5.95
2022-12-03T12:19:43.262Z,3.08
2022-12-03T12:22:27.535Z,9.48
2022-12-03T12:25:03.471Z,5.97
2022-12-03T12:27:35.853Z,2.70
2022-12-03T12:30:18.226Z,3.20
2022-12-03T12:32:50.469Z,3.38
2022-12-03T12:35:26.603Z,3.75
2022-12-03T12:38:24.316Z,6.40
2022-12-03T12:40:52.600Z,7.22
2022-12-03T12:43:27.989Z,4.97
2022-12-03T12:46:13.555Z,4.82
2022-12-03T12:48:47.797Z,6.30
2022-12-03T12:51:20.694Z,4.53
2022-12-03T12:53:49.883Z,2.50
2022-12-03T12:56:23.320Z,7.50
2022-12-03T12:58:51.464Z,4.10
2022-12-03T13:01:30.559Z,3.15
2022-12-03T13:03:59.694Z,9.82
2022-12-03T13:06:30.293Z,10.70
2022-12-03T13:09:01.106Z,3.80
2022-12-03T13:11:52.679Z,6.95
2022-12-03T13:14:23.113Z,9.23
2022-12-03T13:16:52.994Z,7.35
2022-12-03T13:19:28.889Z,9.65
2022-12-03T13:22:00.043Z,4.57
2022-12-03T13:24:37.667Z,8.30
2022-12-03T13:27:20.571Z,7.00
2022-12-03T13:29:51.243Z,7.35
2022-12-03T13:32:27.675Z,8.23
2022-12-03T13:35:18.461Z,10.60
2022-12-03T13:37:46.244Z,4.85
2022-12-03T13:40:35.166Z,5.45
2022-12-03T13:43:18.646Z,3.67
2022-12-03T13:45:52.351Z,7.93
2022-12-03T13:48:29.551Z,2.63
2022-12-03T13:50:58.058Z,6.47
2022-12-03T13:53:37.511Z,9.75
2022-12-03T13:56:23.868Z,6.70
2022-12-03T13:58:51.424Z,7.57
2022-12-03T14:01:18.951Z,5.68
2022-12-03T14:03:46.661Z,5.95
2022-12-03T14:06:14.537Z,5.50
2022-12-03T14:08:42.178Z,5.88
2022-12-03T14:11:29.710Z,6.10
2022-12-03T14:13:57.391Z,5.60
2022-12-03T14:16:25.186Z,7.65
2022-12-03T14:18:52.740Z,12.32
2022-12-03T14:21:20.236Z,5.30
2022-12-03T14:23:47.822Z,6.60
2022-12-03T14:26:15.867Z,8.10
2022-12-03T14:28:43.615Z,14.23
2022-12-03T14:31:11.135Z,7.10
2022-12-03T14:33:38.766Z,7.50
2022-12-03T14:36:06.590Z,9.07
2022-12-03T14:38:34.159Z,7.18
2022-12-03T14:41:01.901Z,3.08
2022-12-03T14:43:29.786Z,6.07
2022-12-03T14:45:59.877Z,6.82
2022-12-03T14:48:28.246Z,7.57
2022-12-03T14:50:55.802Z,5.03
2022-12-03T14:53:27.189Z,11.95
2022-12-03T14:55:55.979Z,9.68
2022-12-03T14:58:23.759Z,6.97
2022-12-03T15:00:51.291Z,8.38
2022-12-03T15:03:22.584Z,9.73
2022-12-03T15:05:50.127Z,9.30
2022-12-03T15:08:17.771Z,8.45
2022-12-03T15:10:45.658Z,5.43
2022-12-03T15:13:14.150Z,6.35
2022-12-03T15:15:41.789Z,6.30
2022-12-03T15:18:09.359Z,3.92
2022-12-03T15:20:38.418Z,7.13
2022-12-03T15:23:08.859Z,6.88
2022-12-03T15:25:40.522Z,5.93
2022-12-03T15:28:08.192Z,12.68
2022-12-03T15:30:35.889Z,8.27
2022-12-03T15:33:04.000Z,13.38
2022-12-03T15:35:32.345Z,7.18
2022-12-03T15:38:00.171Z,11.98
2022-12-03T15:40:28.264Z,5.50
2022-12-03T15:42:55.932Z,7.57
2022-12-03T15:45:23.565Z,7.50
2022-12-03T15:47:51.831Z,9.02
2022-12-03T15:50:19.472Z,6.78
2022-12-03T15:52:47.398Z,11.55
2022-12-03T15:55:15.179Z,12.32
2022-12-03T15:57:42.995Z,8.30
2022-12-03T16:00:13.390Z,10.63
2022-12-03T16:02:42.728Z,9.25
2022-12-03T16:05:13.151Z,11.00
2022-12-03T16:07:40.926Z,8.50
2022-12-03T16:10:12.676Z,10.95
2022-12-03T16:12:43.043Z,11.55
2022-12-03T16:15:10.769Z,11.00
2022-12-03T16:17:41.071Z,8.23
2022-12-03T16:20:08.891Z,8.13
2022-12-03T16:22:36.409Z,9.88
2022-12-03T16:25:05.182Z,12.60
2022-12-03T16:27:33.511Z,14.50
2022-12-03T16:30:02.114Z,9.48
2022-12-03T16:32:30.008Z,8.88
2022-12-03T16:34:57.901Z,8.95
2022-12-03T16:37:25.660Z,11.45
2022-12-03T16:39:53.465Z,9.68
2022-12-03T16:42:21.396Z,11.00
2022-12-03T16:45:14.852Z,7.68
2022-12-03T16:47:42.423Z,15.90
2022-12-03T16:50:14.568Z,10.68
2022-12-03T16:52:47.357Z,12.02
2022-12-03T16:55:14.936Z,16.67
2022-12-03T16:57:42.735Z,10.00
2022-12-03T17:00:11.032Z,16.50
2022-12-03T17:02:38.584Z,11.65
2022-12-03T17:05:06.488Z,9.07
2022-12-03T17:07:34.229Z,15.75
2022-12-03T17:10:02.469Z,15.18
2022-12-03T17:12:54.180Z,10.23
2022-12-03T17:15:18.756Z,14.82
2022-12-03T17:17:46.524Z,14.27
2022-12-03T17:20:14.851Z,16.27
2022-12-03T17:22:42.501Z,18.17
2022-12-03T17:25:11.009Z,10.43
2022-12-03T17:27:44.880Z,12.77
2022-12-03T17:30:13.686Z,9.32
2022-12-03T17:32:41.448Z,9.30
2022-12-03T17:35:10.818Z,9.65
2022-12-03T17:37:40.431Z,12.00
2022-12-03T17:40:10.842Z,8.98
2022-12-03T17:42:38.620Z,14.20
2022-12-03T17:45:06.855Z,8.25
2022-12-03T17:47:34.321Z,13.52
2022-12-03T17:50:02.128Z,10.10
2022-12-03T17:52:29.814Z,7.60
2022-12-03T17:55:19.216Z,10.32
2022-12-03T17:57:45.295Z,9.43
2022-12-03T18:00:13.408Z,13.85
2022-12-03T18:02:42.556Z,7.18
2022-12-03T18:05:10.654Z,11.05
2022-12-03T18:07:38.206Z,10.82
2022-12-03T18:10:06.867Z,8.32
2022-12-03T18:12:35.449Z,12.25
2022-12-03T18:15:03.182Z,8.38
2022-12-03T18:17:30.867Z,12.60
2022-12-03T18:19:58.601Z,8.80
2022-12-03T18:22:28.148Z,12.60
2022-12-03T18:24:55.907Z,11.73
2022-12-03T18:27:23.951Z,13.63
2022-12-03T18:29:51.740Z,9.70
2022-12-03T18:32:29.298Z,9.93
2022-12-03T18:34:57.659Z,8.50
2022-12-03T18:37:29.931Z,7.57
2022-12-03T18:39:58.458Z,8.60
2022-12-03T18:42:26.500Z,10.27
2022-12-03T18:44:56.031Z,7.22
2022-12-03T18:47:31.040Z,10.70
2022-12-03T18:49:58.905Z,9.23
2022-12-03T18:52:26.640Z,7.78
2022-12-03T18:54:55.410Z,6.30
2022-12-03T18:57:23.243Z,10.20
2022-12-03T18:59:50.965Z,8.15
2022-12-03T19:05:09.628Z,10.30
2022-12-03T19:07:37.536Z,13.60
2022-12-03T19:10:06.064Z,12.45
2022-12-03T19:12:33.813Z,11.18
2022-12-03T19:15:02.053Z,10.65
2022-12-03T19:17:29.764Z,10.50
2022-12-03T19:19:57.651Z,7.30
2022-12-03T19:22:25.457Z,7.47
2022-12-03T19:24:53.177Z,11.80
2022-12-03T19:27:20.712Z,7.68
2022-12-03T19:29:49.273Z,6.63
2022-12-03T19:32:16.927Z,5.38
2022-12-03T19:34:44.522Z,7.68
2022-12-03T19:37:12.091Z,8.57
2022-12-03T19:39:39.687Z,10.35
2022-12-03T19:42:07.439Z,9.15
2022-12-03T19:44:35.616Z,7.10
2022-12-03T19:47:03.327Z,7.32
2022-12-03T19:49:33.994Z,8.07
2022-12-03T19:52:01.721Z,4.72
2022-12-03T19:54:29.459Z,7.00
2022-12-03T19:56:57.506Z,4.05
2022-12-03T19:59:25.017Z,5.57
2022-12-03T20:01:52.961Z,3.22
2022-12-03T20:04:20.581Z,12.05
2022-12-03T20:06:48.366Z,4.30
2022-12-03T20:09:17.949Z,3.20
2022-12-03T20:11:46.461Z,5.15
2022-12-03T20:14:16.043Z,4.15
2022-12-03T20:16:45.303Z,7.05
2022-12-03T20:19:14.943Z,4.47
2022-12-03T20:21:44.365Z,3.35
2022-12-03T20:24:16.712Z,5.10
2022-12-03T20:26:44.645Z,9.77
2022-12-03T20:29:12.443Z,7.20
2022-12-03T20:31:40.088Z,11.15
2022-12-03T20:34:08.133Z,6.63
2022-12-03T20:36:36.049Z,7.55
2022-12-03T20:39:06.179Z,4.88
2022-12-03T20:44:07.437Z,6.88
2022-12-03T20:46:35.297Z,7.88
2022-12-03T20:49:03.754Z,6.15
2022-12-03T20:51:31.688Z,5.38
2022-12-03T20:54:00.446Z,10.10
2022-12-03T20:56:31.422Z,8.95
2022-12-03T20:59:14.873Z,10.75
2022-12-03T21:01:44.135Z,13.50
2022-12-03T21:04:13.606Z,11.25
2022-12-03T21:06:42.410Z,7.05
2022-12-03T21:09:11.668Z,7.70
2022-12-03T21:11:42.346Z,7.47
2022-12-03T21:14:11.214Z,14.35
2022-12-03T21:19:30.469Z,16.30
2022-12-03T21:21:58.052Z,8.25
2022-12-03T21:24:25.680Z,4.90
2022-12-03T21:26:53.276Z,5.75
2022-12-03T21:29:20.882Z,9.38
2022-12-03T21:31:48.392Z,9.48
2022-12-03T21:34:16.263Z,15.10
2022-12-03T21:36:43.841Z,9.35
2022-12-03T21:39:11.442Z,8.15
2022-12-03T21:41:39.175Z,7.40
2022-12-03T21:44:06.821Z,6.47
2022-12-03T21:47:12.690Z,8.98
2022-12-03T21:49:22.795Z,12.80
2022-12-03T21:51:50.478Z,7.13
2022-12-03T21:54:18.445Z,6.22
2022-12-03T21:56:46.049Z,7.70
2022-12-03T21:59:13.551Z,6.10
2022-12-03T22:01:45.697Z,5.95
2022-12-03T22:04:14.865Z,10.73
2022-12-03T22:06:42.373Z,11.65
2022-12-03T22:09:10.146Z,15.25
2022-12-03T22:11:37.700Z,8.45
2022-12-03T22:14:06.888Z,8.23
2022-12-03T22:16:34.774Z,8.38
2022-12-03T22:19:02.532Z,8.15
2022-12-03T22:21:30.367Z,6.82
2022-12-03T22:23:57.854Z,8.95
2022-12-03T22:26:25.586Z,4.82
2022-12-03T22:28:53.230Z,8.00
2022-12-03T22:31:20.937Z,4.63
2022-12-03T22:33:49.630Z,5.55
2022-12-03T22:36:21.542Z,5.85
2022-12-03T22:38:50.976Z,4.75
2022-12-03T22:41:19.849Z,9.07
2022-12-03T22:43:48.459Z,5.60
2022-12-03T22:46:16.703Z,4.63
2022-12-03T22:48:45.989Z,4.43
2022-12-03T22:51:19.893Z,7.57
2022-12-03T22:53:48.398Z,7.53
2022-12-03T22:56:17.257Z,7.47
2022-12-03T22:58:45.092Z,4.03
2022-12-03T23:01:28.731Z,7.25
2022-12-03T23:03:56.610Z,4.57
2022-12-03T23:06:24.817Z,3.08
2022-12-03T23:08:52.597Z,8.20
2022-12-03T23:11:20.673Z,2.95
2022-12-03T23:13:48.724Z,4.53
2022-12-03T23:16:22.612Z,6.65
2022-12-03T23:18:50.713Z,4.85
2022-12-03T23:21:29.439Z,7.38
2022-12-03T23:23:59.059Z,6.55
2022-12-03T23:26:27.382Z,3.30
2022-12-03T23:28:55.222Z,5.22
2022-12-03T23:31:28.777Z,7.30
2022-12-03T23:33:58.408Z,10.00
2022-12-03T23:36:28.250Z,6.55
2022-12-03T23:38:56.094Z,4.53
2022-12-03T23:41:24.586Z,5.53
2022-12-03T23:43:52.315Z,9.02
2022-12-03T23:46:22.902Z,7.10
2022-12-03T23:48:51.232Z,8.55
2022-12-03T23:51:24.142Z,7.78
2022-12-03T23:53:53.257Z,7.95
2022-12-03T23:56:24.171Z,6.88
2022-12-03T23:58:52.005Z,7.85
